createdAt,value
2018-05-31T00:00:05.798Z,53.23
2018-05-31T00:02:34.513Z,52.48
2018-05-31T00:05:03.047Z,61.61
2018-05-31T00:07:32.597Z,64.39
2018-05-31T00:10:02.046Z,64.95
2018-05-31T00:12:30.591Z,67.36
2018-05-31T00:14:59.725Z,68.30
2018-05-31T00:17:29.050Z,67.87
2018-05-31T00:19:58.326Z,67.70
2018-05-31T00:22:27.646Z,67.61
2018-05-31T00:24:56.371Z,66.95
2018-05-31T00:27:24.890Z,66.35
2018-05-31T00:29:54.365Z,65.95
2018-05-31T00:32:23.041Z,65.67
2018-05-31T00:34:51.565Z,65.21
2018-05-31T00:37:20.882Z,64.64
2018-05-31T00:39:49.385Z,65.08
2018-05-31T00:42:17.894Z,64.18
2018-05-31T00:44:46.506Z,64.10
2018-05-31T00:47:15.030Z,64.11
2018-05-31T00:49:43.533Z,64.29
2018-05-31T00:52:12.089Z,64.29
2018-05-31T00:54:40.650Z,64.15
2018-05-31T00:57:10.106Z,64.52
2018-05-31T00:59:39.912Z,64.10
2018-05-31T01:02:08.522Z,63.56
2018-05-31T01:04:37.799Z,63.41
2018-05-31T01:07:06.622Z,63.29
2018-05-31T01:09:35.897Z,63.28
2018-05-31T01:12:04.571Z,63.35
2018-05-31T01:14:33.140Z,63.16
2018-05-31T01:17:01.655Z,64.09
2018-05-31T01:19:30.162Z,64.82
2018-05-31T01:21:58.942Z,65.16
2018-05-31T01:24:27.460Z,65.90
2018-05-31T01:26:55.970Z,65.20
2018-05-31T01:29:24.538Z,65.14
2018-05-31T01:31:53.243Z,65.67
2018-05-31T01:34:22.378Z,65.45
2018-05-31T01:36:50.939Z,65.03
2018-05-31T01:39:19.453Z,65.29
2018-05-31T01:41:47.985Z,64.76
2018-05-31T01:44:17.482Z,64.78
2018-05-31T01:46:46.999Z,64.75
2018-05-31T01:49:15.527Z,64.70
2018-05-31T01:51:44.844Z,65.35
2018-05-31T01:54:13.500Z,65.15
2018-05-31T01:56:42.974Z,65.40
2018-05-31T01:59:12.618Z,65.72
2018-05-31T02:01:41.142Z,65.76
2018-05-31T02:04:09.645Z,66.22
2018-05-31T02:06:38.215Z,66.66
2018-05-31T02:09:06.757Z,66.48
2018-05-31T02:11:35.354Z,66.39
2018-05-31T02:14:03.942Z,66.62
2018-05-31T02:16:32.545Z,67.68
2018-05-31T02:19:01.077Z,67.72
2018-05-31T02:21:30.413Z,67.59
2018-05-31T02:23:58.929Z,68.00
2018-05-31T02:26:27.437Z,68.36
2018-05-31T02:28:56.965Z,68.63
2018-05-31T02:31:25.644Z,68.66
2018-05-31T02:33:54.377Z,69.57
2018-05-31T02:36:23.352Z,69.92
2018-05-31T02:38:51.869Z,69.70
2018-05-31T02:41:21.291Z,70.29
2018-05-31T02:43:50.954Z,70.30
2018-05-31T02:46:20.278Z,70.09
2018-05-31T02:48:48.786Z,69.74
2018-05-31T02:51:18.278Z,70.02
2018-05-31T02:53:47.559Z,70.04
2018-05-31T02:56:16.235Z,70.60
2018-05-31T02:58:44.906Z,70.51
2018-05-31T03:01:13.413Z,69.72
2018-05-31T03:03:41.929Z,69.38
2018-05-31T03:06:10.906Z,69.68
2018-05-31T03:08:39.425Z,69.24
2018-05-31T03:11:07.942Z,69.28
2018-05-31T03:13:36.949Z,69.40
2018-05-31T03:16:05.470Z,69.63
2018-05-31T03:18:34.008Z,69.59
2018-05-31T03:21:02.813Z,69.12
2018-05-31T03:23:31.314Z,68.92
2018-05-31T03:25:59.889Z,69.16
2018-05-31T03:28:28.641Z,69.46
2018-05-31T03:30:57.419Z,68.77
2018-05-31T03:33:26.102Z,67.91
2018-05-31T03:35:54.789Z,67.68
2018-05-31T03:38:23.297Z,67.44
2018-05-31T03:40:51.813Z,67.60
2018-05-31T03:43:20.579Z,67.72
2018-05-31T03:45:49.989Z,67.43
2018-05-31T03:48:19.269Z,67.21
2018-05-31T03:50:47.841Z,67.09
2018-05-31T03:53:16.394Z,67.14
2018-05-31T03:55:45.037Z,67.15
2018-05-31T03:58:13.615Z,66.34
2018-05-31T04:00:42.889Z,66.35
2018-05-31T04:03:11.403Z,66.32
2018-05-31T04:05:41.113Z,65.79
2018-05-31T04:08:09.622Z,65.59
2018-05-31T04:10:38.154Z,65.14
2018-05-31T04:13:06.722Z,64.81
2018-05-31T04:15:35.226Z,65.30
2018-05-31T04:18:04.517Z,64.86
2018-05-31T04:20:33.846Z,64.88
2018-05-31T04:23:02.390Z,64.37
2018-05-31T04:25:30.895Z,64.49
2018-05-31T04:28:00.215Z,63.95
2018-05-31T04:30:28.946Z,63.53
2018-05-31T04:32:57.450Z,63.25
2018-05-31T04:35:26.798Z,63.24
2018-05-31T04:37:55.293Z,63.10
2018-05-31T04:40:23.874Z,62.75
2018-05-31T04:42:52.410Z,61.92
2018-05-31T04:45:21.697Z,60.95
2018-05-31T04:47:50.987Z,59.57
2018-05-31T04:50:19.931Z,57.55
2018-05-31T04:52:48.459Z,56.67
2018-05-31T04:55:18.510Z,55.79
2018-05-31T04:57:48.135Z,54.87
2018-05-31T05:00:16.646Z,54.14
2018-05-31T05:02:45.343Z,51.32
2018-05-31T05:05:14.846Z,51.81
2018-05-31T05:07:43.366Z,50.22
2018-05-31T05:10:11.890Z,49.73
2018-05-31T05:12:40.455Z,49.26
2018-05-31T05:15:08.974Z,49.07
2018-05-31T05:17:37.660Z,46.31
2018-05-31T05:20:06.798Z,46.75
2018-05-31T05:22:36.261Z,45.41
2018-05-31T05:25:04.810Z,44.05
2018-05-31T05:27:33.741Z,44.78
2018-05-31T05:30:03.239Z,44.74
2018-05-31T05:32:31.803Z,44.00
2018-05-31T05:35:00.426Z,43.47
2018-05-31T05:37:28.962Z,45.40
2018-05-31T05:39:58.232Z,44.14
2018-05-31T05:42:27.938Z,44.70
2018-05-31T05:44:57.205Z,45.36
2018-05-31T05:47:25.738Z,43.62
2018-05-31T05:49:55.221Z,42.98
2018-05-31T05:52:24.494Z,41.25
2018-05-31T05:54:53.002Z,42.58
2018-05-31T05:57:22.714Z,40.83
2018-05-31T05:59:51.238Z,40.12
2018-05-31T06:02:19.752Z,41.10
2018-05-31T06:04:48.309Z,40.42
2018-05-31T06:07:16.813Z,40.46
2018-05-31T06:09:46.258Z,39.00
2018-05-31T06:12:15.406Z,38.94
2018-05-31T06:14:43.933Z,39.44
2018-05-31T06:17:13.210Z,39.83
2018-05-31T06:19:41.761Z,39.74
2018-05-31T06:22:10.302Z,40.19
2018-05-31T06:24:38.974Z,40.42
2018-05-31T06:27:07.790Z,39.11
2018-05-31T06:29:36.318Z,40.25
2018-05-31T06:32:04.845Z,39.01
2018-05-31T06:34:33.406Z,37.45
2018-05-31T06:37:01.938Z,38.69
2018-05-31T06:39:30.433Z,38.01
2018-05-31T06:41:59.366Z,37.49
2018-05-31T06:44:28.633Z,38.84
2018-05-31T06:46:57.167Z,37.61
2018-05-31T06:49:25.794Z,37.87
2018-05-31T06:51:54.475Z,37.19
2018-05-31T06:54:23.033Z,36.84
2018-05-31T06:56:52.298Z,35.93
2018-05-31T06:59:20.943Z,36.50
2018-05-31T07:01:49.442Z,36.62
2018-05-31T07:04:18.151Z,36.88
2018-05-31T07:06:48.370Z,36.93
2018-05-31T07:09:18.112Z,36.41
2018-05-31T07:11:47.033Z,36.16
2018-05-31T07:14:15.664Z,37.30
2018-05-31T07:16:45.129Z,35.06
2018-05-31T07:19:13.842Z,34.46
2018-05-31T07:21:42.347Z,35.20
2018-05-31T07:24:11.731Z,34.13
2018-05-31T07:26:41.238Z,34.67
2018-05-31T07:29:10.505Z,32.79
2018-05-31T07:31:38.994Z,34.17
2018-05-31T07:34:07.701Z,35.21
2018-05-31T07:36:36.194Z,35.76
2018-05-31T07:39:05.558Z,33.38
2018-05-31T07:41:34.373Z,33.79
2018-05-31T07:44:02.902Z,32.91
2018-05-31T07:46:31.569Z,31.36
2018-05-31T07:49:00.530Z,31.00
2018-05-31T07:51:29.185Z,30.50
2018-05-31T07:53:57.690Z,30.27
2018-05-31T07:56:26.656Z,29.17
2018-05-31T07:58:55.341Z,29.36
2018-05-31T08:01:23.857Z,29.75
2018-05-31T08:03:52.542Z,28.55
2018-05-31T08:06:21.300Z,28.03
2018-05-31T08:08:49.985Z,30.49
2018-05-31T08:11:18.722Z,31.20
2018-05-31T08:13:47.231Z,28.29
2018-05-31T08:16:15.801Z,27.56
2018-05-31T08:18:44.465Z,27.16
2018-05-31T08:21:13.752Z,29.59
2018-05-31T08:23:42.395Z,27.38
2018-05-31T08:26:10.947Z,27.44
2018-05-31T08:28:39.439Z,26.60
2018-05-31T08:31:07.954Z,28.52
2018-05-31T08:33:36.869Z,27.33
2018-05-31T08:36:06.449Z,26.70
2018-05-31T08:38:35.135Z,27.46
2018-05-31T08:41:04.058Z,25.83
2018-05-31T08:43:33.437Z,25.13
2018-05-31T08:46:01.934Z,23.44
2018-05-31T08:48:31.557Z,24.08
2018-05-31T08:51:00.196Z,24.40
2018-05-31T08:53:29.508Z,24.31
2018-05-31T08:55:58.673Z,23.30
2018-05-31T08:58:27.189Z,23.51
2018-05-31T09:00:57.238Z,24.69
2018-05-31T09:03:25.825Z,24.17
2018-05-31T09:23:57.585Z,23.05
2018-05-31T09:26:26.231Z,23.90
2018-05-31T09:28:54.770Z,22.24
2018-05-31T09:31:23.612Z,23.63
2018-05-31T09:33:52.146Z,22.69
2018-05-31T09:36:20.671Z,22.32
2018-05-31T09:38:49.363Z,23.74
2018-05-31T09:41:17.917Z,22.36
2018-05-31T09:43:46.434Z,23.71
2018-05-31T09:46:15.249Z,23.26
2018-05-31T09:48:43.944Z,25.13
2018-05-31T09:51:12.681Z,24.71
2018-05-31T09:53:41.258Z,24.70
2018-05-31T09:56:10.053Z,23.78
2018-05-31T09:58:38.610Z,24.09
2018-05-31T10:01:07.186Z,24.09
2018-05-31T10:03:35.703Z,24.87
2018-05-31T10:06:04.397Z,23.28
2018-05-31T10:08:33.114Z,25.60
2018-05-31T10:11:01.809Z,24.58
2018-05-31T10:13:30.502Z,24.36
2018-05-31T10:15:59.395Z,22.84
2018-05-31T10:18:28.065Z,25.57
2018-05-31T10:20:57.334Z,26.42
2018-05-31T10:23:26.112Z,26.07
2018-05-31T10:25:55.422Z,24.15
2018-05-31T10:28:23.920Z,24.28
2018-05-31T10:30:52.473Z,23.34
2018-05-31T10:33:20.965Z,25.73
2018-05-31T10:35:49.458Z,22.94
2018-05-31T10:38:18.154Z,24.98
2018-05-31T10:40:47.522Z,23.74
2018-05-31T10:43:16.022Z,24.50
2018-05-31T10:45:44.706Z,23.93
2018-05-31T10:48:13.671Z,23.65
2018-05-31T10:50:42.265Z,23.18
2018-05-31T10:53:11.191Z,22.42
2018-05-31T10:55:40.497Z,20.76
2018-05-31T10:58:09.182Z,22.56
2018-05-31T11:00:37.929Z,23.17
2018-05-31T11:03:06.617Z,24.31
2018-05-31T11:05:35.161Z,23.83
2018-05-31T11:08:04.910Z,24.42
2018-05-31T11:10:33.600Z,25.64
2018-05-31T11:13:02.101Z,23.72
2018-05-31T11:15:30.797Z,23.06
2018-05-31T11:18:00.086Z,21.83
2018-05-31T11:20:29.525Z,23.48
2018-05-31T11:22:58.153Z,23.02
2018-05-31T11:25:26.883Z,22.76
2018-05-31T11:27:55.413Z,22.12
2018-05-31T11:30:24.025Z,22.92
2018-05-31T11:32:53.313Z,21.77
2018-05-31T11:35:22.090Z,23.07
2018-05-31T11:37:50.771Z,21.93
2018-05-31T11:40:19.426Z,20.18
2018-05-31T11:42:48.137Z,21.99
2018-05-31T11:45:16.714Z,21.02
2018-05-31T11:47:45.288Z,22.41
2018-05-31T11:50:13.821Z,22.10
2018-05-31T11:52:43.858Z,22.82
2018-05-31T11:55:12.602Z,21.81
2018-05-31T11:57:42.098Z,21.05
2018-05-31T12:00:11.091Z,21.51
2018-05-31T12:02:39.627Z,22.00
2018-05-31T12:05:08.301Z,22.77
2018-05-31T12:07:36.893Z,23.11
2018-05-31T12:10:05.481Z,22.05
2018-05-31T12:12:34.113Z,22.16
2018-05-31T12:15:02.839Z,21.99
2018-05-31T12:17:31.620Z,22.65
2018-05-31T12:20:00.375Z,22.26
2018-05-31T12:22:28.958Z,22.06
2018-05-31T12:24:57.486Z,22.82
2018-05-31T12:27:26.012Z,21.28
2018-05-31T12:29:54.814Z,22.02
2018-05-31T12:32:23.500Z,22.45
2018-05-31T12:34:52.220Z,22.94
2018-05-31T12:37:21.007Z,22.68
2018-05-31T12:39:49.551Z,23.71
2018-05-31T12:42:18.230Z,22.79
2018-05-31T12:44:47.162Z,22.54
2018-05-31T12:47:16.453Z,22.23
2018-05-31T12:49:45.937Z,21.90
2018-05-31T12:52:15.334Z,22.15
2018-05-31T12:54:44.127Z,23.00
2018-05-31T12:57:12.674Z,23.55
2018-05-31T12:59:41.262Z,22.74
2018-05-31T13:02:09.787Z,22.74
2018-05-31T13:04:38.314Z,22.36
2018-05-31T13:07:06.892Z,21.18
2018-05-31T13:09:35.653Z,22.35
2018-05-31T13:12:04.210Z,21.36
2018-05-31T13:14:32.998Z,21.37
2018-05-31T13:17:01.682Z,22.17
2018-05-31T13:19:30.211Z,22.23
2018-05-31T13:21:59.257Z,20.31
2018-05-31T13:24:27.782Z,23.56
2018-05-31T13:26:56.415Z,23.07
2018-05-31T13:29:25.249Z,21.30
2018-05-31T13:31:53.765Z,22.15
2018-05-31T13:34:22.284Z,20.46
2018-05-31T13:36:51.093Z,20.89
2018-05-31T13:39:19.649Z,22.92
2018-05-31T13:41:48.174Z,22.62
2018-05-31T13:44:16.945Z,23.01
2018-05-31T13:46:46.423Z,23.21
2018-05-31T13:49:15.116Z,22.47
2018-05-31T13:51:43.689Z,22.42
2018-05-31T13:54:12.431Z,23.48
2018-05-31T13:56:40.934Z,24.04
2018-05-31T13:59:09.795Z,22.57
2018-05-31T14:01:38.529Z,20.74
2018-05-31T14:04:07.162Z,22.30
2018-05-31T14:06:37.029Z,22.46
2018-05-31T14:09:06.636Z,22.83
2018-05-31T14:11:35.145Z,21.79
2018-05-31T14:14:03.720Z,21.68
2018-05-31T14:16:32.265Z,23.20
2018-05-31T14:19:01.714Z,23.23
2018-05-31T14:21:30.286Z,22.52
2018-05-31T14:23:59.550Z,22.49
2018-05-31T14:26:28.050Z,22.67
2018-05-31T14:28:56.834Z,23.84
2018-05-31T14:31:26.126Z,23.20
2018-05-31T14:33:54.625Z,23.12
2018-05-31T14:36:24.118Z,24.07
2018-05-31T14:38:52.622Z,23.12
2018-05-31T14:41:21.242Z,22.68
2018-05-31T14:43:51.022Z,23.15
2018-05-31T14:46:19.718Z,23.53
2018-05-31T14:48:48.430Z,21.63
2018-05-31T14:51:17.174Z,23.72
2018-05-31T14:53:46.515Z,24.06
2018-05-31T14:56:15.038Z,24.72
2018-05-31T14:58:45.531Z,23.73
2018-05-31T15:01:14.150Z,23.65
2018-05-31T15:03:42.790Z,23.79
2018-05-31T15:06:11.382Z,24.54
2018-05-31T15:08:39.875Z,24.20
2018-05-31T15:11:08.547Z,24.49
2018-05-31T15:13:37.166Z,24.48
2018-05-31T15:16:05.677Z,24.13
2018-05-31T15:18:34.214Z,23.98
2018-05-31T15:21:03.734Z,24.64
2018-05-31T15:23:32.254Z,25.28
2018-05-31T15:26:00.750Z,24.14
2018-05-31T15:28:29.449Z,24.57
2018-05-31T15:30:57.959Z,24.71
2018-05-31T15:33:26.453Z,24.54
2018-05-31T15:35:55.768Z,24.71
2018-05-31T15:38:25.082Z,23.62
2018-05-31T15:40:53.744Z,23.22
2018-05-31T15:43:23.446Z,23.10
2018-05-31T15:45:52.782Z,23.26
2018-05-31T15:48:21.449Z,22.77
2018-05-31T15:50:49.981Z,24.94
2018-05-31T15:53:18.526Z,24.21
2018-05-31T15:55:47.241Z,24.47
2018-05-31T15:58:16.834Z,23.90
2018-05-31T16:00:45.347Z,24.70
2018-05-31T16:03:13.842Z,25.93
2018-05-31T16:05:42.553Z,25.67
2018-05-31T16:08:11.825Z,26.96
2018-05-31T16:10:40.328Z,25.37
2018-05-31T16:13:10.022Z,25.82
2018-05-31T16:15:38.530Z,26.81
2018-05-31T16:18:07.038Z,25.52
2018-05-31T16:20:35.840Z,25.28
2018-05-31T16:23:04.376Z,25.77
2018-05-31T16:25:33.641Z,26.35
2018-05-31T16:28:02.345Z,27.64
2018-05-31T16:30:30.838Z,25.77
2018-05-31T16:33:00.154Z,27.07
2018-05-31T16:35:28.973Z,27.06
2018-05-31T16:37:57.477Z,28.41
2018-05-31T16:40:25.974Z,26.90
2018-05-31T16:42:55.449Z,27.89
2018-05-31T16:45:23.954Z,28.99
2018-05-31T16:47:52.470Z,28.97
2018-05-31T16:50:21.779Z,28.98
2018-05-31T16:52:50.445Z,29.10
2018-05-31T16:55:19.895Z,28.87
2018-05-31T16:57:48.446Z,29.12
2018-05-31T17:00:16.987Z,29.19
2018-05-31T17:02:45.565Z,28.48
2018-05-31T17:05:14.429Z,28.96
2018-05-31T17:07:43.014Z,30.42
2018-05-31T17:10:11.559Z,30.32
2018-05-31T17:12:40.468Z,30.51
2018-05-31T17:15:09.007Z,30.49
2018-05-31T17:17:37.714Z,30.33
2018-05-31T17:20:06.682Z,30.62
2018-05-31T17:22:35.442Z,31.28
2018-05-31T17:25:04.330Z,33.45
2018-05-31T17:27:33.381Z,33.99
2018-05-31T17:30:03.813Z,34.58
2018-05-31T17:32:33.654Z,35.30
2018-05-31T17:35:02.166Z,36.76
2018-05-31T17:37:31.750Z,37.94
2018-05-31T17:40:01.597Z,37.55
2018-05-31T17:42:30.904Z,37.70
2018-05-31T17:45:00.364Z,38.68
2018-05-31T17:47:29.456Z,39.32
2018-05-31T17:49:58.141Z,39.81
2018-05-31T17:52:26.661Z,39.70
2018-05-31T17:54:56.856Z,40.20
2018-05-31T17:57:25.636Z,40.83
2018-05-31T17:59:54.167Z,39.94
2018-05-31T18:02:23.657Z,41.39
2018-05-31T18:04:52.977Z,41.75
2018-05-31T18:07:22.549Z,43.42
2018-05-31T18:09:52.287Z,44.21
2018-05-31T18:12:21.735Z,44.70
2018-05-31T18:14:50.242Z,46.10
2018-05-31T18:17:19.014Z,45.04
2018-05-31T18:19:47.514Z,44.89
2018-05-31T18:22:16.150Z,46.04
2018-05-31T18:24:45.126Z,46.86
2018-05-31T18:27:13.855Z,47.86
2018-05-31T18:29:42.539Z,48.56
2018-05-31T18:32:11.106Z,49.29
2018-05-31T18:34:39.642Z,49.35
2018-05-31T18:37:08.144Z,50.18
2018-05-31T18:39:37.450Z,50.21
2018-05-31T18:42:06.904Z,49.40
2018-05-31T18:44:35.414Z,49.61
2018-05-31T18:47:03.983Z,48.79
2018-05-31T18:49:32.739Z,47.94
2018-05-31T18:52:01.239Z,47.68
2018-05-31T18:54:29.786Z,46.88
2018-05-31T18:56:58.294Z,46.58
2018-05-31T18:59:26.846Z,45.86
2018-05-31T19:01:55.388Z,46.23
2018-05-31T19:04:24.446Z,46.42
2018-05-31T19:06:53.170Z,46.71
2018-05-31T19:09:27.990Z,46.84
2018-05-31T19:11:56.510Z,46.11
2018-05-31T19:14:25.233Z,45.60
2018-05-31T19:16:53.936Z,44.62
2018-05-31T19:19:27.891Z,44.36
2018-05-31T19:21:56.925Z,44.14
2018-05-31T19:24:30.797Z,44.04
2018-05-31T19:26:59.487Z,44.64
2018-05-31T19:29:27.988Z,45.34
2018-05-31T19:31:56.488Z,45.43
2018-05-31T19:34:25.218Z,46.01
2018-05-31T19:36:59.137Z,45.90
2018-05-31T19:39:27.893Z,46.33
2018-05-31T19:41:57.162Z,46.43
2018-05-31T19:44:31.371Z,45.42
2018-05-31T19:47:11.733Z,45.83
2018-05-31T19:49:40.654Z,46.07
2018-05-31T19:52:14.730Z,46.42
2018-05-31T19:54:43.683Z,46.86
2018-05-31T19:57:12.190Z,47.37
2018-05-31T19:59:46.573Z,47.79
2018-05-31T20:02:21.274Z,48.28
2018-05-31T20:04:49.907Z,48.45
2018-05-31T20:07:18.569Z,49.19
2018-05-31T20:09:47.839Z,49.43
2018-05-31T20:12:21.257Z,50.20
2018-05-31T20:14:47.852Z,50.70
2018-05-31T20:17:16.545Z,51.28
2018-05-31T20:19:45.117Z,51.67
2018-05-31T20:22:13.811Z,51.78
2018-05-31T20:24:42.360Z,52.44
2018-05-31T20:27:11.073Z,53.47
2018-05-31T20:29:39.583Z,53.91
2018-05-31T20:32:08.346Z,54.56
2018-05-31T20:34:36.894Z,54.79
2018-05-31T20:37:05.422Z,55.04
2018-05-31T20:39:33.942Z,55.77
2018-05-31T20:42:04.662Z,55.30
2018-05-31T20:44:33.964Z,55.47
2018-05-31T20:47:03.435Z,54.81
2018-05-31T20:49:33.626Z,54.61
2018-05-31T20:52:02.271Z,54.78
2018-05-31T20:54:31.561Z,55.09
2018-05-31T20:57:00.254Z,55.77
2018-05-31T20:59:28.750Z,56.26
2018-05-31T21:01:58.101Z,56.95
2018-05-31T21:04:27.095Z,56.98
2018-05-31T21:06:55.602Z,57.05
2018-05-31T21:09:24.099Z,57.04
2018-05-31T21:11:54.133Z,57.25
2018-05-31T21:14:23.378Z,56.23
2018-05-31T21:16:51.871Z,56.56
2018-05-31T21:19:20.438Z,57.43
2018-05-31T21:21:48.941Z,56.34
2018-05-31T21:24:18.946Z,56.62
2018-05-31T21:26:47.653Z,56.73
2018-05-31T21:29:16.175Z,55.17
2018-05-31T21:31:44.687Z,56.20
2018-05-31T21:34:13.610Z,56.78
2018-05-31T21:36:42.105Z,54.93
2018-05-31T21:39:11.559Z,56.55
2018-05-31T21:41:40.493Z,56.57
2018-05-31T21:44:09.795Z,57.35
2018-05-31T21:46:39.074Z,57.48
2018-05-31T21:49:07.774Z,57.62
2018-05-31T21:51:37.344Z,57.62
2018-05-31T21:54:05.862Z,57.50
2018-05-31T21:56:34.773Z,57.50
2018-05-31T21:59:03.282Z,57.42
2018-05-31T22:01:31.787Z,58.03
2018-05-31T22:04:00.502Z,58.52
2018-05-31T22:06:29.764Z,58.91
2018-05-31T22:08:58.338Z,59.17
2018-05-31T22:11:27.101Z,59.26
2018-05-31T22:13:55.829Z,59.33
2018-05-31T22:16:25.264Z,59.30
2018-05-31T22:18:54.765Z,59.14
2018-05-31T22:21:24.034Z,59.81
2018-05-31T22:23:52.682Z,60.59
2018-05-31T22:26:21.330Z,61.39
2018-05-31T22:28:49.945Z,61.79
2018-05-31T22:31:18.474Z,62.15
2018-05-31T22:33:47.395Z,61.53
2018-05-31T22:36:16.661Z,61.07
2018-05-31T22:38:45.162Z,61.68
2018-05-31T22:41:13.850Z,62.27
2018-05-31T22:43:43.126Z,62.44
2018-05-31T22:46:11.806Z,62.92
2018-05-31T22:48:40.353Z,63.03
2018-05-31T22:51:09.609Z,62.98
2018-05-31T22:53:39.609Z,63.53
2018-05-31T22:56:08.364Z,63.41
2018-05-31T22:58:36.854Z,63.70
2018-05-31T23:01:05.350Z,62.81
2018-05-31T23:03:33.970Z,63.56
2018-05-31T23:06:02.501Z,63.36
2018-05-31T23:08:36.832Z,61.52
2018-05-31T23:11:05.420Z,61.77
2018-05-31T23:13:34.110Z,61.52
2018-05-31T23:16:02.831Z,62.70
2018-05-31T23:18:33.614Z,64.79
2018-05-31T23:21:02.313Z,65.99
2018-05-31T23:23:31.404Z,66.62
2018-05-31T23:25:59.905Z,67.65
2018-05-31T23:28:28.398Z,68.55
2018-05-31T23:30:56.942Z,69.10
2018-05-31T23:33:25.434Z,70.03
2018-05-31T23:35:54.217Z,69.17
2018-05-31T23:38:22.941Z,68.25
2018-05-31T23:40:52.205Z,69.27
2018-05-31T23:43:20.854Z,69.97
2018-05-31T23:45:49.881Z,69.35
2018-05-31T23:48:18.385Z,68.42
2018-05-31T23:50:47.222Z,68.67
2018-05-31T23:53:15.978Z,67.86
2018-05-31T23:55:44.624Z,67.57
2018-05-31T23:58:13.186Z,67.88
